sensor_id;sensor_type;location;lat;lon;timestamp;P1;durP1;ratioP1;P2;durP2;ratioP2
5052;SDS011;2545;50.892;5.740;2023-09-19T00:01:28;8.20;;;2.80;;
5052;SDS011;2545;50.892;5.740;2023-09-19T00:03:55;12.10;;;3.30;;
5052;SDS011;2545;50.892;5.740;2023-09-19T00:06:22;13.03;;;2.63;;
5052;SDS011;2545;50.892;5.740;2023-09-19T00:08:50;11.33;;;3.33;;
5052;SDS011;2545;50.892;5.740;2023-09-19T00:11:16;6.80;;;3.17;;
5052;SDS011;2545;50.892;5.740;2023-09-19T00:13:41;14.93;;;3.20;;
5052;SDS011;2545;50.892;5.740;2023-09-19T00:16:08;13.50;;;3.47;;
5052;SDS011;2545;50.892;5.740;2023-09-19T00:18:38;9.33;;;3.50;;
5052;SDS011;2545;50.892;5.740;2023-09-19T00:21:03;10.27;;;3.83;;
5052;SDS011;2545;50.892;5.740;2023-09-19T00:23:32;5.23;;;3.13;;
5052;SDS011;2545;50.892;5.740;2023-09-19T00:25:58;13.63;;;2.77;;
5052;SDS011;2545;50.892;5.740;2023-09-19T00:28:24;14.60;;;3.63;;
5052;SDS011;2545;50.892;5.740;2023-09-19T00:30:50;19.50;;;3.40;;
5052;SDS011;2545;50.892;5.740;2023-09-19T00:33:15;9.60;;;2.93;;
5052;SDS011;2545;50.892;5.740;2023-09-19T00:35:50;9.77;;;3.50;;
5052;SDS011;2545;50.892;5.740;2023-09-19T00:38:17;14.30;;;4.10;;
5052;SDS011;2545;50.892;5.740;2023-09-19T00:40:49;13.13;;;3.70;;
5052;SDS011;2545;50.892;5.740;2023-09-19T00:43:16;11.83;;;3.20;;
5052;SDS011;2545;50.892;5.740;2023-09-19T00:45:42;23.57;;;3.40;;
5052;SDS011;2545;50.892;5.740;2023-09-19T00:48:10;12.40;;;3.40;;
5052;SDS011;2545;50.892;5.740;2023-09-19T00:50:36;11.40;;;2.80;;
5052;SDS011;2545;50.892;5.740;2023-09-19T00:53:06;8.77;;;3.27;;
5052;SDS011;2545;50.892;5.740;2023-09-19T00:55:33;11.87;;;2.80;;
5052;SDS011;2545;50.892;5.740;2023-09-19T00:57:59;16.47;;;2.97;;
5052;SDS011;2545;50.892;5.740;2023-09-19T01:00:24;17.10;;;3.80;;
5052;SDS011;2545;50.892;5.740;2023-09-19T01:02:50;10.83;;;3.00;;
5052;SDS011;2545;50.892;5.740;2023-09-19T01:05:16;11.93;;;3.00;;
5052;SDS011;2545;50.892;5.740;2023-09-19T01:07:42;23.13;;;3.50;;
5052;SDS011;2545;50.892;5.740;2023-09-19T01:10:08;6.60;;;2.90;;
5052;SDS011;2545;50.892;5.740;2023-09-19T01:15:38;22.40;;;3.30;;
5052;SDS011;2545;50.892;5.740;2023-09-19T01:18:27;22.40;;;4.07;;
5052;SDS011;2545;50.892;5.740;2023-09-19T01:27:17;9.50;;;3.27;;
5052;SDS011;2545;50.892;5.740;2023-09-19T01:30:06;13.80;;;3.10;;
5052;SDS011;2545;50.892;5.740;2023-09-19T01:32:33;15.23;;;3.20;;
5052;SDS011;2545;50.892;5.740;2023-09-19T01:34:59;10.03;;;3.30;;
5052;SDS011;2545;50.892;5.740;2023-09-19T01:37:30;11.10;;;3.33;;
5052;SDS011;2545;50.892;5.740;2023-09-19T01:39:58;8.50;;;3.30;;
5052;SDS011;2545;50.892;5.740;2023-09-19T01:45:57;18.27;;;3.97;;
5052;SDS011;2545;50.892;5.740;2023-09-19T01:48:40;8.90;;;2.93;;
5052;SDS011;2545;50.892;5.740;2023-09-19T01:51:07;11.10;;;2.77;;
5052;SDS011;2545;50.892;5.740;2023-09-19T01:53:36;9.67;;;2.90;;
5052;SDS011;2545;50.892;5.740;2023-09-19T01:56:12;10.50;;;3.10;;
5052;SDS011;2545;50.892;5.740;2023-09-19T01:58:45;11.60;;;4.00;;
5052;SDS011;2545;50.892;5.740;2023-09-19T02:01:16;21.17;;;3.07;;
5052;SDS011;2545;50.892;5.740;2023-09-19T02:03:45;13.07;;;4.27;;
5052;SDS011;2545;50.892;5.740;2023-09-19T02:06:15;10.30;;;3.07;;
5052;SDS011;2545;50.892;5.740;2023-09-19T02:08:42;20.17;;;3.43;;
5052;SDS011;2545;50.892;5.740;2023-09-19T02:11:08;13.60;;;3.00;;
5052;SDS011;2545;50.892;5.740;2023-09-19T02:13:33;7.17;;;3.03;;
5052;SDS011;2545;50.892;5.740;2023-09-19T02:15:59;12.33;;;3.40;;
5052;SDS011;2545;50.892;5.740;2023-09-19T02:18:24;20.60;;;3.50;;
5052;SDS011;2545;50.892;5.740;2023-09-19T02:20:52;9.63;;;2.80;;
5052;SDS011;2545;50.892;5.740;2023-09-19T02:23:18;11.53;;;3.50;;
5052;SDS011;2545;50.892;5.740;2023-09-19T02:25:51;22.20;;;5.07;;
5052;SDS011;2545;50.892;5.740;2023-09-19T02:28:17;9.17;;;3.03;;
5052;SDS011;2545;50.892;5.740;2023-09-19T02:30:42;9.97;;;3.70;;
5052;SDS011;2545;50.892;5.740;2023-09-19T02:33:07;13.87;;;3.33;;
5052;SDS011;2545;50.892;5.740;2023-09-19T02:35:33;19.00;;;3.40;;
5052;SDS011;2545;50.892;5.740;2023-09-19T02:38:01;13.80;;;3.30;;
5052;SDS011;2545;50.892;5.740;2023-09-19T02:40:27;13.60;;;3.30;;
5052;SDS011;2545;50.892;5.740;2023-09-19T02:42:54;12.97;;;3.83;;
5052;SDS011;2545;50.892;5.740;2023-09-19T02:45:20;18.27;;;3.97;;
5052;SDS011;2545;50.892;5.740;2023-09-19T02:47:46;12.20;;;3.40;;
5052;SDS011;2545;50.892;5.740;2023-09-19T02:50:12;12.63;;;3.23;;
5052;SDS011;2545;50.892;5.740;2023-09-19T02:52:41;8.63;;;2.77;;
5052;SDS011;2545;50.892;5.740;2023-09-19T02:55:08;13.97;;;4.37;;
5052;SDS011;2545;50.892;5.740;2023-09-19T02:57:35;19.87;;;3.20;;
5052;SDS011;2545;50.892;5.740;2023-09-19T03:00:05;17.50;;;4.40;;
5052;SDS011;2545;50.892;5.740;2023-09-19T03:02:32;15.83;;;3.80;;
5052;SDS011;2545;50.892;5.740;2023-09-19T03:04:59;14.60;;;4.30;;
5052;SDS011;2545;50.892;5.740;2023-09-19T03:07:25;14.53;;;3.20;;
5052;SDS011;2545;50.892;5.740;2023-09-19T03:09:50;20.00;;;4.20;;
5052;SDS011;2545;50.892;5.740;2023-09-19T03:12:17;21.07;;;3.80;;
5052;SDS011;2545;50.892;5.740;2023-09-19T03:14:43;14.70;;;3.23;;
5052;SDS011;2545;50.892;5.740;2023-09-19T03:17:08;6.80;;;3.20;;
5052;SDS011;2545;50.892;5.740;2023-09-19T03:19:34;18.63;;;3.53;;
5052;SDS011;2545;50.892;5.740;2023-09-19T03:21:59;13.80;;;3.47;;
5052;SDS011;2545;50.892;5.740;2023-09-19T03:24:25;13.53;;;3.83;;
5052;SDS011;2545;50.892;5.740;2023-09-19T03:26:51;14.70;;;3.83;;
5052;SDS011;2545;50.892;5.740;2023-09-19T03:29:17;15.37;;;3.70;;
5052;SDS011;2545;50.892;5.740;2023-09-19T03:31:42;24.33;;;5.17;;
5052;SDS011;2545;50.892;5.740;2023-09-19T03:34:08;18.23;;;3.23;;
5052;SDS011;2545;50.892;5.740;2023-09-19T03:36:33;30.80;;;4.57;;
5052;SDS011;2545;50.892;5.740;2023-09-19T03:38:59;10.90;;;3.20;;
5052;SDS011;2545;50.892;5.740;2023-09-19T03:41:24;14.53;;;4.47;;
5052;SDS011;2545;50.892;5.740;2023-09-19T03:43:50;11.17;;;3.20;;
5052;SDS011;2545;50.892;5.740;2023-09-19T03:46:15;15.13;;;3.30;;
5052;SDS011;2545;50.892;5.740;2023-09-19T03:48:40;19.63;;;3.20;;
5052;SDS011;2545;50.892;5.740;2023-09-19T03:51:06;14.67;;;3.83;;
5052;SDS011;2545;50.892;5.740;2023-09-19T03:53:31;14.13;;;4.40;;
5052;SDS011;2545;50.892;5.740;2023-09-19T03:55:56;27.13;;;3.70;;
5052;SDS011;2545;50.892;5.740;2023-09-19T03:58:22;16.73;;;3.63;;
5052;SDS011;2545;50.892;5.740;2023-09-19T04:00:47;17.47;;;3.30;;
5052;SDS011;2545;50.892;5.740;2023-09-19T04:03:14;17.60;;;3.30;;
5052;SDS011;2545;50.892;5.740;2023-09-19T04:05:44;15.70;;;3.23;;
5052;SDS011;2545;50.892;5.740;2023-09-19T04:08:11;12.97;;;3.97;;
5052;SDS011;2545;50.892;5.740;2023-09-19T04:10:36;16.90;;;3.37;;
5052;SDS011;2545;50.892;5.740;2023-09-19T04:13:02;26.67;;;3.20;;
5052;SDS011;2545;50.892;5.740;2023-09-19T04:15:29;25.40;;;3.93;;
5052;SDS011;2545;50.892;5.740;2023-09-19T04:17:54;11.70;;;2.60;;
5052;SDS011;2545;50.892;5.740;2023-09-19T04:20:19;18.47;;;3.47;;
5052;SDS011;2545;50.892;5.740;2023-09-19T04:22:47;11.83;;;3.20;;
5052;SDS011;2545;50.892;5.740;2023-09-19T04:25:12;19.73;;;4.40;;
5052;SDS011;2545;50.892;5.740;2023-09-19T04:27:38;17.87;;;3.37;;
5052;SDS011;2545;50.892;5.740;2023-09-19T04:30:04;14.73;;;3.43;;
5052;SDS011;2545;50.892;5.740;2023-09-19T04:32:35;10.87;;;3.90;;
5052;SDS011;2545;50.892;5.740;2023-09-19T04:35:03;14.87;;;3.30;;
5052;SDS011;2545;50.892;5.740;2023-09-19T04:37:31;15.20;;;3.37;;
5052;SDS011;2545;50.892;5.740;2023-09-19T04:39:56;13.53;;;3.30;;
5052;SDS011;2545;50.892;5.740;2023-09-19T04:42:22;16.27;;;3.80;;
5052;SDS011;2545;50.892;5.740;2023-09-19T04:44:49;24.43;;;4.10;;
5052;SDS011;2545;50.892;5.740;2023-09-19T04:47:15;12.93;;;3.10;;
5052;SDS011;2545;50.892;5.740;2023-09-19T04:49:41;18.03;;;3.60;;
5052;SDS011;2545;50.892;5.740;2023-09-19T04:52:06;15.80;;;3.90;;
5052;SDS011;2545;50.892;5.740;2023-09-19T04:54:32;16.03;;;3.70;;
5052;SDS011;2545;50.892;5.740;2023-09-19T04:56:58;12.63;;;3.30;;
5052;SDS011;2545;50.892;5.740;2023-09-19T04:59:24;13.90;;;3.83;;
5052;SDS011;2545;50.892;5.740;2023-09-19T05:01:49;14.67;;;2.70;;
5052;SDS011;2545;50.892;5.740;2023-09-19T05:04:15;17.83;;;3.77;;
5052;SDS011;2545;50.892;5.740;2023-09-19T05:06:40;9.97;;;3.33;;
5052;SDS011;2545;50.892;5.740;2023-09-19T05:09:05;10.43;;;3.23;;
5052;SDS011;2545;50.892;5.740;2023-09-19T05:11:31;12.00;;;3.00;;
5052;SDS011;2545;50.892;5.740;2023-09-19T05:13:56;12.93;;;3.00;;
5052;SDS011;2545;50.892;5.740;2023-09-19T05:16:22;24.37;;;4.20;;
5052;SDS011;2545;50.892;5.740;2023-09-19T05:18:47;14.77;;;3.83;;
5052;SDS011;2545;50.892;5.740;2023-09-19T05:21:12;6.43;;;3.17;;
5052;SDS011;2545;50.892;5.740;2023-09-19T05:23:38;8.17;;;2.37;;
5052;SDS011;2545;50.892;5.740;2023-09-19T05:26:03;13.80;;;3.20;;
5052;SDS011;2545;50.892;5.740;2023-09-19T05:28:30;12.80;;;3.73;;
5052;SDS011;2545;50.892;5.740;2023-09-19T05:30:57;16.47;;;4.03;;
5052;SDS011;2545;50.892;5.740;2023-09-19T05:33:27;13.30;;;2.93;;
5052;SDS011;2545;50.892;5.740;2023-09-19T05:35:52;16.53;;;3.13;;
5052;SDS011;2545;50.892;5.740;2023-09-19T05:38:18;17.57;;;3.57;;
5052;SDS011;2545;50.892;5.740;2023-09-19T05:40:45;15.00;;;4.30;;
5052;SDS011;2545;50.892;5.740;2023-09-19T05:43:11;14.70;;;3.10;;
5052;SDS011;2545;50.892;5.740;2023-09-19T05:45:37;21.70;;;3.97;;
5052;SDS011;2545;50.892;5.740;2023-09-19T05:48:13;18.67;;;3.63;;
5052;SDS011;2545;50.892;5.740;2023-09-19T05:50:40;12.23;;;3.10;;
5052;SDS011;2545;50.892;5.740;2023-09-19T05:53:06;17.57;;;4.33;;
5052;SDS011;2545;50.892;5.740;2023-09-19T05:55:32;17.13;;;3.70;;
5052;SDS011;2545;50.892;5.740;2023-09-19T05:57:58;13.73;;;3.07;;
5052;SDS011;2545;50.892;5.740;2023-09-19T06:00:24;17.80;;;3.30;;
5052;SDS011;2545;50.892;5.740;2023-09-19T06:02:52;10.40;;;3.47;;
5052;SDS011;2545;50.892;5.740;2023-09-19T06:05:19;11.50;;;2.83;;
5052;SDS011;2545;50.892;5.740;2023-09-19T06:07:45;21.67;;;3.50;;
5052;SDS011;2545;50.892;5.740;2023-09-19T06:10:12;9.60;;;3.00;;
5052;SDS011;2545;50.892;5.740;2023-09-19T06:12:44;15.63;;;3.87;;
5052;SDS011;2545;50.892;5.740;2023-09-19T06:15:10;10.93;;;3.50;;
5052;SDS011;2545;50.892;5.740;2023-09-19T06:17:40;23.03;;;3.80;;
5052;SDS011;2545;50.892;5.740;2023-09-19T06:20:12;16.07;;;3.60;;
5052;SDS011;2545;50.892;5.740;2023-09-19T06:22:40;8.10;;;3.50;;
5052;SDS011;2545;50.892;5.740;2023-09-19T06:25:07;7.90;;;3.27;;
5052;SDS011;2545;50.892;5.740;2023-09-19T06:27:32;27.80;;;4.53;;
5052;SDS011;2545;50.892;5.740;2023-09-19T06:29:58;9.97;;;3.30;;
5052;SDS011;2545;50.892;5.740;2023-09-19T06:32:27;14.37;;;3.10;;
5052;SDS011;2545;50.892;5.740;2023-09-19T06:34:52;14.47;;;3.27;;
5052;SDS011;2545;50.892;5.740;2023-09-19T06:37:19;13.27;;;3.50;;
5052;SDS011;2545;50.892;5.740;2023-09-19T06:39:46;13.20;;;3.20;;
5052;SDS011;2545;50.892;5.740;2023-09-19T06:42:13;15.07;;;3.60;;
5052;SDS011;2545;50.892;5.740;2023-09-19T06:44:38;13.40;;;2.83;;
5052;SDS011;2545;50.892;5.740;2023-09-19T06:47:03;22.67;;;3.60;;
5052;SDS011;2545;50.892;5.740;2023-09-19T06:49:29;10.43;;;2.80;;
5052;SDS011;2545;50.892;5.740;2023-09-19T06:51:55;18.30;;;4.07;;
5052;SDS011;2545;50.892;5.740;2023-09-19T06:54:22;11.30;;;5.00;;
5052;SDS011;2545;50.892;5.740;2023-09-19T06:56:47;18.23;;;4.40;;
5052;SDS011;2545;50.892;5.740;2023-09-19T06:59:13;12.07;;;3.13;;
5052;SDS011;2545;50.892;5.740;2023-09-19T07:01:39;7.43;;;3.10;;
5052;SDS011;2545;50.892;5.740;2023-09-19T07:04:06;20.67;;;3.23;;
5052;SDS011;2545;50.892;5.740;2023-09-19T07:06:31;16.70;;;3.27;;
5052;SDS011;2545;50.892;5.740;2023-09-19T07:08:57;11.90;;;3.50;;
5052;SDS011;2545;50.892;5.740;2023-09-19T07:11:22;22.33;;;4.10;;
5052;SDS011;2545;50.892;5.740;2023-09-19T07:13:48;12.90;;;3.33;;
5052;SDS011;2545;50.892;5.740;2023-09-19T07:16:13;16.40;;;4.03;;
5052;SDS011;2545;50.892;5.740;2023-09-19T07:18:52;12.00;;;3.53;;
5052;SDS011;2545;50.892;5.740;2023-09-19T07:21:18;8.50;;;3.10;;
5052;SDS011;2545;50.892;5.740;2023-09-19T07:23:43;10.93;;;3.03;;
5052;SDS011;2545;50.892;5.740;2023-09-19T07:26:08;8.20;;;2.77;;
5052;SDS011;2545;50.892;5.740;2023-09-19T07:28:34;20.37;;;3.77;;
5052;SDS011;2545;50.892;5.740;2023-09-19T07:31:01;8.00;;;2.73;;
5052;SDS011;2545;50.892;5.740;2023-09-19T07:33:30;11.13;;;3.80;;
5052;SDS011;2545;50.892;5.740;2023-09-19T07:35:56;21.23;;;4.10;;
5052;SDS011;2545;50.892;5.740;2023-09-19T07:38:21;10.50;;;3.33;;
5052;SDS011;2545;50.892;5.740;2023-09-19T07:40:47;15.00;;;3.03;;
5052;SDS011;2545;50.892;5.740;2023-09-19T07:43:13;14.40;;;3.37;;
5052;SDS011;2545;50.892;5.740;2023-09-19T07:45:38;17.83;;;3.13;;
5052;SDS011;2545;50.892;5.740;2023-09-19T07:48:05;17.83;;;3.23;;
5052;SDS011;2545;50.892;5.740;2023-09-19T07:50:33;22.83;;;3.47;;
5052;SDS011;2545;50.892;5.740;2023-09-19T07:53:01;18.27;;;3.43;;
5052;SDS011;2545;50.892;5.740;2023-09-19T07:55:29;9.53;;;3.13;;
5052;SDS011;2545;50.892;5.740;2023-09-19T07:57:55;18.13;;;5.27;;
5052;SDS011;2545;50.892;5.740;2023-09-19T08:00:20;7.30;;;2.80;;
5052;SDS011;2545;50.892;5.740;2023-09-19T08:02:46;16.47;;;3.30;;
5052;SDS011;2545;50.892;5.740;2023-09-19T08:05:12;12.47;;;2.83;;
5052;SDS011;2545;50.892;5.740;2023-09-19T08:07:42;11.50;;;2.70;;
5052;SDS011;2545;50.892;5.740;2023-09-19T08:10:09;12.10;;;2.80;;
5052;SDS011;2545;50.892;5.740;2023-09-19T08:12:41;20.57;;;4.00;;
5052;SDS011;2545;50.892;5.740;2023-09-19T08:15:18;11.53;;;3.03;;
5052;SDS011;2545;50.892;5.740;2023-09-19T08:17:44;11.40;;;3.03;;
5052;SDS011;2545;50.892;5.740;2023-09-19T08:20:10;12.40;;;2.77;;
5052;SDS011;2545;50.892;5.740;2023-09-19T08:22:42;13.40;;;3.10;;
5052;SDS011;2545;50.892;5.740;2023-09-19T08:25:09;10.57;;;3.10;;
5052;SDS011;2545;50.892;5.740;2023-09-19T08:27:34;10.10;;;3.03;;
5052;SDS011;2545;50.892;5.740;2023-09-19T08:30:01;13.93;;;3.97;;
5052;SDS011;2545;50.892;5.740;2023-09-19T08:32:28;7.23;;;2.43;;
5052;SDS011;2545;50.892;5.740;2023-09-19T08:34:53;8.13;;;2.57;;
5052;SDS011;2545;50.892;5.740;2023-09-19T08:37:19;14.93;;;3.37;;
5052;SDS011;2545;50.892;5.740;2023-09-19T08:39:44;9.60;;;2.40;;
5052;SDS011;2545;50.892;5.740;2023-09-19T08:42:09;8.77;;;3.30;;
5052;SDS011;2545;50.892;5.740;2023-09-19T08:44:36;7.70;;;2.80;;
5052;SDS011;2545;50.892;5.740;2023-09-19T08:47:11;10.50;;;2.83;;
5052;SDS011;2545;50.892;5.740;2023-09-19T08:52:32;16.97;;;3.87;;
5052;SDS011;2545;50.892;5.740;2023-09-19T08:55:02;8.53;;;3.20;;
5052;SDS011;2545;50.892;5.740;2023-09-19T08:57:31;6.07;;;3.20;;
5052;SDS011;2545;50.892;5.740;2023-09-19T09:00:01;21.30;;;4.50;;
5052;SDS011;2545;50.892;5.740;2023-09-19T09:02:29;14.50;;;3.23;;
5052;SDS011;2545;50.892;5.740;2023-09-19T09:04:59;16.33;;;3.37;;
5052;SDS011;2545;50.892;5.740;2023-09-19T09:07:25;23.00;;;3.20;;
5052;SDS011;2545;50.892;5.740;2023-09-19T09:09:52;7.93;;;2.73;;
5052;SDS011;2545;50.892;5.740;2023-09-19T09:12:18;10.87;;;3.20;;
5052;SDS011;2545;50.892;5.740;2023-09-19T09:14:46;18.20;;;3.50;;
5052;SDS011;2545;50.892;5.740;2023-09-19T09:17:13;12.00;;;2.77;;
5052;SDS011;2545;50.892;5.740;2023-09-19T09:19:39;4.93;;;2.23;;
5052;SDS011;2545;50.892;5.740;2023-09-19T09:22:11;7.07;;;2.93;;
5052;SDS011;2545;50.892;5.740;2023-09-19T09:24:36;17.13;;;2.90;;
5052;SDS011;2545;50.892;5.740;2023-09-19T09:27:05;15.13;;;3.13;;
5052;SDS011;2545;50.892;5.740;2023-09-19T09:29:45;10.07;;;3.17;;
5052;SDS011;2545;50.892;5.740;2023-09-19T09:34:56;5.67;;;2.47;;
5052;SDS011;2545;50.892;5.740;2023-09-19T09:37:23;9.30;;;3.33;;
5052;SDS011;2545;50.892;5.740;2023-09-19T09:39:50;6.97;;;2.70;;
5052;SDS011;2545;50.892;5.740;2023-09-19T09:47:41;15.63;;;3.03;;
5052;SDS011;2545;50.892;5.740;2023-09-19T09:50:31;8.47;;;2.60;;
5052;SDS011;2545;50.892;5.740;2023-09-19T09:53:25;16.57;;;3.50;;
5052;SDS011;2545;50.892;5.740;2023-09-19T09:58:33;9.73;;;3.10;;
5052;SDS011;2545;50.892;5.740;2023-09-19T10:01:00;12.40;;;2.67;;
5052;SDS011;2545;50.892;5.740;2023-09-19T10:03:45;13.83;;;3.23;;
5052;SDS011;2545;50.892;5.740;2023-09-19T10:06:15;7.77;;;2.70;;
5052;SDS011;2545;50.892;5.740;2023-09-19T10:09:24;13.40;;;2.70;;
5052;SDS011;2545;50.892;5.740;2023-09-19T10:11:48;15.80;;;3.03;;
5052;SDS011;2545;50.892;5.740;2023-09-19T10:14:29;9.40;;;2.97;;
5052;SDS011;2545;50.892;5.740;2023-09-19T10:16:56;10.37;;;3.20;;
5052;SDS011;2545;50.892;5.740;2023-09-19T10:19:29;9.90;;;2.57;;
5052;SDS011;2545;50.892;5.740;2023-09-19T10:22:01;12.57;;;3.40;;
5052;SDS011;2545;50.892;5.740;2023-09-19T10:24:28;13.73;;;2.53;;
5052;SDS011;2545;50.892;5.740;2023-09-19T10:26:56;12.70;;;2.43;;
5052;SDS011;2545;50.892;5.740;2023-09-19T10:29:22;12.90;;;2.80;;
5052;SDS011;2545;50.892;5.740;2023-09-19T10:31:53;16.50;;;3.00;;
5052;SDS011;2545;50.892;5.740;2023-09-19T10:34:23;18.30;;;3.17;;
5052;SDS011;2545;50.892;5.740;2023-09-19T10:36:50;11.73;;;3.47;;
5052;SDS011;2545;50.892;5.740;2023-09-19T10:39:16;13.33;;;3.07;;
5052;SDS011;2545;50.892;5.740;2023-09-19T10:41:50;16.97;;;3.10;;
5052;SDS011;2545;50.892;5.740;2023-09-19T10:44:20;9.70;;;3.43;;
5052;SDS011;2545;50.892;5.740;2023-09-19T10:46:48;8.90;;;3.00;;
5052;SDS011;2545;50.892;5.740;2023-09-19T10:49:14;14.67;;;3.30;;
5052;SDS011;2545;50.892;5.740;2023-09-19T10:51:40;10.43;;;2.87;;
5052;SDS011;2545;50.892;5.740;2023-09-19T10:54:11;11.90;;;2.50;;
5052;SDS011;2545;50.892;5.740;2023-09-19T10:56:40;20.30;;;4.30;;
5052;SDS011;2545;50.892;5.740;2023-09-19T10:59:10;7.17;;;2.43;;
5052;SDS011;2545;50.892;5.740;2023-09-19T11:01:44;11.63;;;2.90;;
5052;SDS011;2545;50.892;5.740;2023-09-19T11:04:27;9.63;;;2.73;;
5052;SDS011;2545;50.892;5.740;2023-09-19T11:09:55;17.47;;;3.23;;
5052;SDS011;2545;50.892;5.740;2023-09-19T11:14:56;8.10;;;2.47;;
5052;SDS011;2545;50.892;5.740;2023-09-19T11:25:42;15.33;;;4.20;;
5052;SDS011;2545;50.892;5.740;2023-09-19T11:30:42;11.23;;;2.77;;
5052;SDS011;2545;50.892;5.740;2023-09-19T11:33:17;6.90;;;2.60;;
5052;SDS011;2545;50.892;5.740;2023-09-19T11:35:58;8.47;;;2.13;;
5052;SDS011;2545;50.892;5.740;2023-09-19T11:49:16;15.13;;;2.80;;
5052;SDS011;2545;50.892;5.740;2023-09-19T11:51:45;7.00;;;2.90;;
5052;SDS011;2545;50.892;5.740;2023-09-19T11:54:12;8.40;;;2.40;;
5052;SDS011;2545;50.892;5.740;2023-09-19T11:56:43;8.90;;;2.20;;
5052;SDS011;2545;50.892;5.740;2023-09-19T11:59:10;7.07;;;2.17;;
5052;SDS011;2545;50.892;5.740;2023-09-19T12:01:37;4.67;;;2.07;;
5052;SDS011;2545;50.892;5.740;2023-09-19T12:04:11;10.67;;;2.30;;
5052;SDS011;2545;50.892;5.740;2023-09-19T12:06:36;4.60;;;1.80;;
5052;SDS011;2545;50.892;5.740;2023-09-19T12:09:04;6.63;;;2.23;;
5052;SDS011;2545;50.892;5.740;2023-09-19T12:11:32;4.80;;;2.17;;
5052;SDS011;2545;50.892;5.740;2023-09-19T12:13:58;7.30;;;2.17;;
5052;SDS011;2545;50.892;5.740;2023-09-19T12:16:25;5.23;;;1.93;;
5052;SDS011;2545;50.892;5.740;2023-09-19T12:18:55;6.60;;;2.30;;
5052;SDS011;2545;50.892;5.740;2023-09-19T12:21:22;9.03;;;2.07;;
5052;SDS011;2545;50.892;5.740;2023-09-19T12:23:56;10.10;;;2.70;;
5052;SDS011;2545;50.892;5.740;2023-09-19T12:26:44;10.57;;;2.70;;
5052;SDS011;2545;50.892;5.740;2023-09-19T12:29:16;8.07;;;2.30;;
5052;SDS011;2545;50.892;5.740;2023-09-19T12:31:58;5.17;;;1.77;;
5052;SDS011;2545;50.892;5.740;2023-09-19T12:34:25;8.13;;;2.00;;
5052;SDS011;2545;50.892;5.740;2023-09-19T12:37:13;9.53;;;1.90;;
5052;SDS011;2545;50.892;5.740;2023-09-19T12:40:03;6.87;;;1.97;;
5052;SDS011;2545;50.892;5.740;2023-09-19T12:42:47;7.17;;;2.40;;
5052;SDS011;2545;50.892;5.740;2023-09-19T12:45:14;8.13;;;2.13;;
5052;SDS011;2545;50.892;5.740;2023-09-19T12:51:07;8.63;;;1.90;;
5052;SDS011;2545;50.892;5.740;2023-09-19T12:53:37;2.83;;;1.47;;
5052;SDS011;2545;50.892;5.740;2023-09-19T12:56:07;4.80;;;1.90;;
5052;SDS011;2545;50.892;5.740;2023-09-19T12:58:36;4.33;;;2.13;;
5052;SDS011;2545;50.892;5.740;2023-09-19T13:01:16;6.10;;;1.70;;
5052;SDS011;2545;50.892;5.740;2023-09-19T13:03:42;7.77;;;1.60;;
5052;SDS011;2545;50.892;5.740;2023-09-19T13:06:07;7.70;;;2.00;;
5052;SDS011;2545;50.892;5.740;2023-09-19T13:08:35;8.37;;;2.07;;
5052;SDS011;2545;50.892;5.740;2023-09-19T13:13:35;8.37;;;2.43;;
5052;SDS011;2545;50.892;5.740;2023-09-19T13:16:05;3.17;;;1.43;;
5052;SDS011;2545;50.892;5.740;2023-09-19T13:18:41;5.60;;;1.93;;
5052;SDS011;2545;50.892;5.740;2023-09-19T13:21:14;3.40;;;1.30;;
5052;SDS011;2545;50.892;5.740;2023-09-19T13:23:49;5.13;;;1.40;;
5052;SDS011;2545;50.892;5.740;2023-09-19T13:26:15;6.80;;;2.13;;
5052;SDS011;2545;50.892;5.740;2023-09-19T13:28:41;8.00;;;2.20;;
5052;SDS011;2545;50.892;5.740;2023-09-19T13:31:06;7.63;;;1.73;;
5052;SDS011;2545;50.892;5.740;2023-09-19T13:33:33;3.43;;;1.60;;
5052;SDS011;2545;50.892;5.740;2023-09-19T13:35:59;3.90;;;1.40;;
5052;SDS011;2545;50.892;5.740;2023-09-19T13:38:24;5.13;;;2.00;;
5052;SDS011;2545;50.892;5.740;2023-09-19T13:40:49;4.80;;;1.90;;
5052;SDS011;2545;50.892;5.740;2023-09-19T13:43:17;5.23;;;1.87;;
5052;SDS011;2545;50.892;5.740;2023-09-19T13:45:43;7.33;;;1.67;;
5052;SDS011;2545;50.892;5.740;2023-09-19T13:48:08;2.37;;;1.40;;
5052;SDS011;2545;50.892;5.740;2023-09-19T13:50:37;2.70;;;1.53;;
5052;SDS011;2545;50.892;5.740;2023-09-19T13:53:07;5.47;;;2.20;;
5052;SDS011;2545;50.892;5.740;2023-09-19T13:55:33;3.80;;;1.67;;
5052;SDS011;2545;50.892;5.740;2023-09-19T13:57:58;4.23;;;1.47;;
5052;SDS011;2545;50.892;5.740;2023-09-19T14:00:24;4.90;;;1.50;;
5052;SDS011;2545;50.892;5.740;2023-09-19T14:02:49;10.50;;;1.70;;
5052;SDS011;2545;50.892;5.740;2023-09-19T14:05:16;5.80;;;1.57;;
5052;SDS011;2545;50.892;5.740;2023-09-19T14:07:44;6.83;;;2.20;;
5052;SDS011;2545;50.892;5.740;2023-09-19T14:10:11;8.67;;;1.60;;
5052;SDS011;2545;50.892;5.740;2023-09-19T14:12:37;3.83;;;1.77;;
5052;SDS011;2545;50.892;5.740;2023-09-19T14:15:03;2.97;;;1.70;;
5052;SDS011;2545;50.892;5.740;2023-09-19T14:17:29;4.50;;;2.30;;
5052;SDS011;2545;50.892;5.740;2023-09-19T14:19:55;2.53;;;1.20;;
5052;SDS011;2545;50.892;5.740;2023-09-19T14:22:20;5.67;;;1.53;;
5052;SDS011;2545;50.892;5.740;2023-09-19T14:24:45;6.10;;;2.10;;
5052;SDS011;2545;50.892;5.740;2023-09-19T14:27:11;15.43;;;1.87;;
5052;SDS011;2545;50.892;5.740;2023-09-19T14:29:36;3.60;;;1.50;;
5052;SDS011;2545;50.892;5.740;2023-09-19T14:32:02;2.60;;;1.67;;
5052;SDS011;2545;50.892;5.740;2023-09-19T14:34:28;7.40;;;1.67;;
5052;SDS011;2545;50.892;5.740;2023-09-19T14:36:53;4.07;;;1.60;;
5052;SDS011;2545;50.892;5.740;2023-09-19T14:39:19;7.80;;;1.53;;
5052;SDS011;2545;50.892;5.740;2023-09-19T14:41:45;9.33;;;1.80;;
5052;SDS011;2545;50.892;5.740;2023-09-19T14:44:10;7.03;;;1.77;;
5052;SDS011;2545;50.892;5.740;2023-09-19T14:46:36;7.10;;;1.50;;
5052;SDS011;2545;50.892;5.740;2023-09-19T14:49:01;5.30;;;1.70;;
5052;SDS011;2545;50.892;5.740;2023-09-19T14:51:29;9.80;;;1.90;;
5052;SDS011;2545;50.892;5.740;2023-09-19T14:53:55;4.30;;;1.60;;
5052;SDS011;2545;50.892;5.740;2023-09-19T14:56:21;6.10;;;1.63;;
5052;SDS011;2545;50.892;5.740;2023-09-19T14:58:48;2.30;;;1.60;;
5052;SDS011;2545;50.892;5.740;2023-09-19T15:01:14;3.93;;;1.90;;
5052;SDS011;2545;50.892;5.740;2023-09-19T15:03:40;5.10;;;1.83;;
5052;SDS011;2545;50.892;5.740;2023-09-19T15:06:08;6.30;;;1.63;;
5052;SDS011;2545;50.892;5.740;2023-09-19T15:08:35;3.37;;;1.60;;
5052;SDS011;2545;50.892;5.740;2023-09-19T15:11:06;6.33;;;1.53;;
5052;SDS011;2545;50.892;5.740;2023-09-19T15:13:32;7.90;;;1.87;;
5052;SDS011;2545;50.892;5.740;2023-09-19T15:16:02;4.63;;;1.60;;
5052;SDS011;2545;50.892;5.740;2023-09-19T15:18:29;8.50;;;2.07;;
5052;SDS011;2545;50.892;5.740;2023-09-19T15:21:05;2.90;;;1.67;;
5052;SDS011;2545;50.892;5.740;2023-09-19T15:23:35;2.93;;;1.60;;
5052;SDS011;2545;50.892;5.740;2023-09-19T15:26:01;4.27;;;1.60;;
5052;SDS011;2545;50.892;5.740;2023-09-19T15:28:30;5.30;;;2.10;;
5052;SDS011;2545;50.892;5.740;2023-09-19T15:31:00;10.10;;;2.00;;
5052;SDS011;2545;50.892;5.740;2023-09-19T15:33:29;6.63;;;1.63;;
5052;SDS011;2545;50.892;5.740;2023-09-19T15:41:26;6.50;;;2.43;;
5052;SDS011;2545;50.892;5.740;2023-09-19T15:43:52;5.00;;;2.10;;
5052;SDS011;2545;50.892;5.740;2023-09-19T15:46:18;2.70;;;1.43;;
5052;SDS011;2545;50.892;5.740;2023-09-19T15:48:45;5.90;;;2.07;;
5052;SDS011;2545;50.892;5.740;2023-09-19T15:51:11;4.90;;;2.07;;
5052;SDS011;2545;50.892;5.740;2023-09-19T15:53:46;5.67;;;2.60;;
5052;SDS011;2545;50.892;5.740;2023-09-19T15:56:18;5.50;;;1.77;;
5052;SDS011;2545;50.892;5.740;2023-09-19T15:58:46;6.63;;;1.87;;
5052;SDS011;2545;50.892;5.740;2023-09-19T16:01:15;3.53;;;1.90;;
5052;SDS011;2545;50.892;5.740;2023-09-19T16:03:51;7.63;;;1.60;;
5052;SDS011;2545;50.892;5.740;2023-09-19T16:06:19;3.43;;;1.67;;
5052;SDS011;2545;50.892;5.740;2023-09-19T16:08:48;6.33;;;2.00;;
5052;SDS011;2545;50.892;5.740;2023-09-19T16:11:15;2.43;;;1.40;;
5052;SDS011;2545;50.892;5.740;2023-09-19T16:13:42;4.73;;;1.47;;
5052;SDS011;2545;50.892;5.740;2023-09-19T16:16:09;4.50;;;1.90;;
5052;SDS011;2545;50.892;5.740;2023-09-19T16:18:37;8.20;;;2.17;;